Time;durP1;ratioP1;P1;durP2;ratioP2;P2;SDS_P1;SDS_P2;PMS_P1;PMS_P2;Temp;Humidity;BMP_temperature;BMP_pressure;BME280_temperature;BME280_humidity;BME280_pressure;Samples;Min_cycle;Max_cycle;Signal;HPM_P1;HPM_P2
2021/05/07 00:01:52;;;;;;;2.50;2.30;;;9.50;87.10;;;;;;4993264;28;20266;-89
2021/05/07 00:04:19;;;;;;;2.30;2.10;;;9.50;87.80;;;;;;4992993;28;20182;-90
2021/05/07 00:06:46;;;;;;;2.10;2.00;;;9.40;87.10;;;;;;4993742;28;20262;-89
2021/05/07 00:09:11;;;;;;;2.53;2.30;;;9.40;87.90;;;;;;4993855;28;20687;-90
2021/05/07 00:11:37;;;;;;;2.37;2.17;;;9.30;88.60;;;;;;5002502;28;20192;-90
2021/05/07 00:14:03;;;;;;;2.20;2.00;;;9.20;90.20;;;;;;5015638;28;20208;-89
2021/05/07 00:16:29;;;;;;;2.40;2.20;;;9.20;90.70;;;;;;5014058;28;20235;-89
2021/05/07 00:18:55;;;;;;;2.30;2.10;;;9.10;90.80;;;;;;5014900;28;20209;-90
2021/05/07 00:21:20;;;;;;;2.03;1.93;;;9.00;91.00;;;;;;5014894;28;20206;-89
2021/05/07 00:23:46;;;;;;;2.70;2.10;;;9.00;91.50;;;;;;5014404;28;20197;-90
2021/05/07 00:26:12;;;;;;;2.50;1.97;;;8.90;92.40;;;;;;5015718;28;20178;-90
2021/05/07 00:28:37;;;;;;;2.67;2.10;;;8.90;93.00;;;;;;5014624;28;20763;-90
2021/05/07 00:31:04;;;;;;;2.63;2.00;;;8.90;93.10;;;;;;5016627;28;20726;-89
2021/05/07 00:33:30;;;;;;;2.23;1.87;;;8.90;92.20;;;;;;5014111;28;20206;-90
2021/05/07 00:35:56;;;;;;;2.53;2.33;;;8.80;92.30;;;;;;5000067;28;20196;-90
2021/05/07 00:38:21;;;;;;;2.20;1.90;;;8.80;93.10;;;;;;4993986;28;20297;-89
2021/05/07 00:40:47;;;;;;;2.30;2.10;;;8.80;93.80;;;;;;4994688;28;20261;-89
2021/05/07 00:43:13;;;;;;;2.20;2.03;;;8.80;93.80;;;;;;4998694;28;20214;-89
2021/05/07 00:45:39;;;;;;;2.20;2.10;;;8.80;94.70;;;;;;5013310;28;20181;-89
2021/05/07 00:48:10;;;;;;;2.40;2.20;;;8.80;94.30;;;;;;5013889;28;20217;-89
2021/05/07 00:50:37;;;;;;;1.90;1.80;;;8.80;93.40;;;;;;5017074;28;20710;-90
2021/05/07 00:53:05;;;;;;;2.27;2.10;;;8.80;93.20;;;;;;5018916;28;20190;-89
2021/05/07 00:55:32;;;;;;;1.80;1.70;;;8.80;93.50;;;;;;5019806;28;20184;-89
2021/05/07 00:57:58;;;;;;;3.93;2.00;;;8.90;93.40;;;;;;5019671;28;20221;-88
2021/05/07 01:00:26;;;;;;;1.80;1.70;;;8.80;93.40;;;;;;5019711;28;20197;-89
2021/05/07 01:02:52;;;;;;;2.60;2.27;;;8.90;94.00;;;;;;5020190;28;20640;-89
2021/05/07 01:05:19;;;;;;;1.93;1.83;;;8.90;94.60;;;;;;5020392;28;20243;-89
2021/05/07 01:07:44;;;;;;;2.50;1.90;;;8.90;94.20;;;;;;5020450;28;20720;-89
2021/05/07 01:10:12;;;;;;;1.90;1.80;;;8.90;94.30;;;;;;5020575;28;20213;-89
2021/05/07 01:12:39;;;;;;;2.10;2.00;;;9.00;94.30;;;;;;5018925;28;20182;-89
2021/05/07 01:15:16;;;;;;;2.80;2.30;;;8.90;93.00;;;;;;5020885;28;20185;-89
2021/05/07 01:17:52;;;;;;;2.00;1.90;;;8.80;94.20;;;;;;5019957;28;20177;-88
2021/05/07 01:20:22;;;;;;;2.23;2.13;;;8.70;95.00;;;;;;5015854;28;20174;-89
2021/05/07 01:22:53;;;;;;;2.33;2.00;;;8.70;95.20;;;;;;5015625;28;20217;-89
2021/05/07 01:25:24;;;;;;;2.27;2.07;;;8.70;94.70;;;;;;5015388;28;20181;-89
2021/05/07 01:27:51;;;;;;;2.03;1.90;;;8.60;95.70;;;;;;5016878;28;20553;-88
2021/05/07 01:30:19;;;;;;;2.30;2.10;;;8.60;96.40;;;;;;5016107;28;20192;-89
2021/05/07 01:32:46;;;;;;;2.20;2.10;;;8.50;96.60;;;;;;5016650;28;20213;-89
2021/05/07 01:35:14;;;;;;;2.20;2.10;;;8.60;96.70;;;;;;5016939;28;20186;-89
2021/05/07 01:37:41;;;;;;;2.23;2.03;;;8.70;97.00;;;;;;5015339;28;20189;-88
2021/05/07 01:40:11;;;;;;;1.93;1.83;;;8.60;96.10;;;;;;5016994;28;20197;-89
2021/05/07 01:42:37;;;;;;;2.03;1.93;;;8.70;95.60;;;;;;5018513;28;20279;-88
2021/05/07 01:45:07;;;;;;;2.20;2.10;;;8.70;95.40;;;;;;5036577;28;20178;-88
2021/05/07 01:47:33;;;;;;;1.90;1.80;;;8.60;95.20;;;;;;5036734;28;20177;-88
2021/05/07 01:49:58;;;;;;;2.10;2.00;;;8.60;95.20;;;;;;5035949;28;20201;-88
2021/05/07 01:52:24;;;;;;;2.50;1.97;;;8.60;95.50;;;;;;5029986;28;20185;-88
2021/05/07 01:54:50;;;;;;;2.30;2.20;;;8.60;95.50;;;;;;5020138;28;20250;-88
2021/05/07 01:57:16;;;;;;;2.40;2.20;;;8.70;95.20;;;;;;5018491;28;20265;-88
2021/05/07 01:59:42;;;;;;;2.00;1.90;;;8.60;95.60;;;;;;5021292;28;20209;-88
2021/05/07 02:02:07;;;;;;;2.10;2.00;;;8.70;95.40;;;;;;5020096;28;20913;-88
2021/05/07 02:04:33;;;;;;;2.10;2.00;;;8.80;94.20;;;;;;5021510;28;20181;-89
2021/05/07 02:06:59;;;;;;;2.00;1.90;;;8.80;94.20;;;;;;5020252;28;20545;-89
2021/05/07 02:09:24;;;;;;;2.20;2.00;;;8.80;93.60;;;;;;5019876;28;20937;-89
2021/05/07 02:11:50;;;;;;;2.43;2.20;;;8.90;93.50;;;;;;5020322;28;20192;-88
2021/05/07 02:14:16;;;;;;;1.90;1.80;;;8.80;93.60;;;;;;5019575;28;20706;-89
2021/05/07 02:16:41;;;;;;;2.30;2.00;;;8.90;93.70;;;;;;5019916;28;20228;-89
2021/05/07 02:19:08;;;;;;;2.77;2.03;;;8.90;94.20;;;;;;5020975;28;20205;-88
2021/05/07 02:21:35;;;;;;;2.23;2.03;;;9.00;93.90;;;;;;5023628;28;20653;-89
2021/05/07 02:24:00;;;;;;;2.50;2.30;;;9.00;93.00;;;;;;5023588;28;20527;-89
2021/05/07 02:26:26;;;;;;;5.23;2.17;;;9.10;92.70;;;;;;5025445;28;20193;-89
2021/05/07 02:28:52;;;;;;;2.13;2.03;;;9.10;92.70;;;;;;5028145;28;20681;-89
2021/05/07 02:31:18;;;;;;;1.93;1.83;;;9.10;92.40;;;;;;5027916;28;20252;-88
2021/05/07 02:33:44;;;;;;;2.40;2.20;;;9.10;92.70;;;;;;5026258;28;20193;-89
2021/05/07 02:36:10;;;;;;;3.40;2.20;;;9.10;92.60;;;;;;5024734;28;20197;-89
2021/05/07 02:38:37;;;;;;;2.97;2.00;;;9.10;93.30;;;;;;5023832;28;20228;-88
2021/05/07 02:41:03;;;;;;;2.53;2.33;;;9.20;92.70;;;;;;5024501;28;20178;-89
2021/05/07 02:43:30;;;;;;;2.20;2.03;;;9.10;92.80;;;;;;5015737;28;20185;-88
2021/05/07 02:45:55;;;;;;;2.17;2.07;;;9.10;92.50;;;;;;5017301;28;20170;-88
2021/05/07 02:48:21;;;;;;;2.40;2.20;;;9.10;92.70;;;;;;5015434;28;20221;-87
2021/05/07 02:50:47;;;;;;;2.53;2.33;;;9.20;93.10;;;;;;5017069;28;20194;-88
2021/05/07 02:53:13;;;;;;;2.03;1.93;;;9.20;93.30;;;;;;5015886;28;20181;-87
2021/05/07 02:55:39;;;;;;;2.27;2.07;;;9.10;92.70;;;;;;5016797;28;20185;-87
2021/05/07 02:58:05;;;;;;;3.00;2.17;;;9.20;92.80;;;;;;5014993;28;20309;-87
2021/05/07 03:00:30;;;;;;;2.23;2.13;;;9.10;93.30;;;;;;5014746;28;20263;-88
2021/05/07 03:02:56;;;;;;;2.43;2.20;;;9.00;94.20;;;;;;5016630;28;20210;-88
2021/05/07 03:05:22;;;;;;;2.30;2.10;;;8.90;94.40;;;;;;5017261;28;20205;-88
2021/05/07 03:07:47;;;;;;;2.60;2.40;;;8.80;95.00;;;;;;5016364;28;20244;-88
2021/05/07 03:10:13;;;;;;;2.67;2.40;;;8.70;95.60;;;;;;5017286;28;20217;-88
2021/05/07 03:12:39;;;;;;;3.20;3.00;;;8.50;98.40;;;;;;5016363;28;20197;-88
2021/05/07 03:15:06;;;;;;;2.93;2.73;;;8.40;98.50;;;;;;5016349;28;20216;-89
2021/05/07 03:17:31;;;;;;;2.90;2.50;;;8.30;99.20;;;;;;5016688;28;20236;-88
2021/05/07 03:19:57;;;;;;;2.90;2.30;;;8.30;99.30;;;;;;5017116;28;20597;-90
2021/05/07 03:22:23;;;;;;;2.60;2.40;;;8.40;98.40;;;;;;5016964;28;20244;-88
2021/05/07 03:24:49;;;;;;;2.93;2.60;;;8.40;99.00;;;;;;5017521;28;20201;-88
2021/05/07 03:27:14;;;;;;;3.20;2.57;;;8.40;98.50;;;;;;5017152;28;20911;-88
2021/05/07 03:29:40;;;;;;;2.90;2.70;;;8.50;98.00;;;;;;5015958;28;20205;-88
2021/05/07 03:32:06;;;;;;;2.80;2.60;;;8.40;98.30;;;;;;5016851;28;20273;-88
2021/05/07 03:34:32;;;;;;;2.40;2.30;;;8.50;98.00;;;;;;5016723;28;20205;-88
2021/05/07 03:36:58;;;;;;;4.27;3.13;;;8.50;98.30;;;;;;5016098;28;20201;-88
2021/05/07 03:39:24;;;;;;;4.67;2.50;;;8.40;98.40;;;;;;5017174;28;20681;-87
2021/05/07 03:41:49;;;;;;;3.27;2.40;;;8.30;98.90;;;;;;5016751;28;20669;-89
2021/05/07 03:44:15;;;;;;;2.43;2.23;;;8.30;99.40;;;;;;5016835;28;20197;-88
2021/05/07 03:46:41;;;;;;;2.53;2.33;;;8.30;99.20;;;;;;5016161;28;20185;-88
2021/05/07 03:49:06;;;;;;;2.80;2.60;;;8.20;99.70;;;;;;5014251;28;20209;-87
2021/05/07 03:51:32;;;;;;;3.07;2.57;;;8.30;99.90;;;;;;5017225;28;20177;-86
2021/05/07 03:53:58;;;;;;;2.43;2.23;;;8.20;99.90;;;;;;5016332;28;20301;-86
2021/05/07 03:56:23;;;;;;;2.80;2.60;;;8.20;99.90;;;;;;5015283;28;20193;-88
2021/05/07 03:58:49;;;;;;;2.40;2.20;;;8.20;99.90;;;;;;5007024;28;20252;-87
2021/05/07 04:01:15;;;;;;;2.67;2.43;;;8.30;99.90;;;;;;4996651;28;20654;-88
2021/05/07 04:03:40;;;;;;;2.70;2.50;;;8.30;99.30;;;;;;5003871;28;20241;-87
2021/05/07 04:06:09;;;;;;;2.50;2.30;;;8.40;97.90;;;;;;5016419;28;20185;-88
2021/05/07 04:08:40;;;;;;;4.27;2.20;;;8.30;98.80;;;;;;5016518;28;20201;-88
2021/05/07 04:13:50;;;;;;;3.43;2.60;;;8.20;99.40;;;;;;5020040;28;20177;-89
2021/05/07 04:16:15;;;;;;;3.00;2.70;;;8.20;99.80;;;;;;5013557;28;20190;-90
2021/05/07 04:18:41;;;;;;;2.80;2.60;;;8.20;99.90;;;;;;5014484;28;20209;-90
2021/05/07 04:21:07;;;;;;;2.97;2.67;;;8.00;99.90;;;;;;5013911;28;20192;-89
2021/05/07 04:23:32;;;;;;;2.70;2.50;;;8.00;99.90;;;;;;5013314;28;20276;-89
2021/05/07 04:26:00;;;;;;;3.60;2.80;;;8.10;99.90;;;;;;5013976;28;20184;-89
2021/05/07 04:28:25;;;;;;;3.17;2.93;;;8.00;99.90;;;;;;5012479;28;20834;-89
2021/05/07 04:30:51;;;;;;;3.07;2.87;;;8.00;99.90;;;;;;5012951;28;20185;-87
2021/05/07 04:33:17;;;;;;;3.00;2.70;;;8.00;99.90;;;;;;5012113;28;20257;-86
2021/05/07 04:35:42;;;;;;;2.80;2.60;;;8.10;99.90;;;;;;5011642;28;20201;-89
2021/05/07 04:38:08;;;;;;;3.20;3.00;;;8.00;99.80;;;;;;5012334;28;20213;-87
2021/05/07 04:40:36;;;;;;;3.40;3.10;;;8.00;99.90;;;;;;5011631;28;20209;-87
2021/05/07 04:43:02;;;;;;;3.00;2.70;;;8.00;99.90;;;;;;5009001;28;20209;-87
2021/05/07 04:45:29;;;;;;;5.00;3.30;;;8.10;99.80;;;;;;5009631;28;20194;-85
2021/05/07 04:47:56;;;;;;;3.40;3.10;;;8.10;99.80;;;;;;5019546;28;20210;-86
2021/05/07 04:50:22;;;;;;;3.73;3.10;;;8.00;99.90;;;;;;5022223;28;20174;-88
2021/05/07 04:52:47;;;;;;;3.60;3.30;;;7.90;99.90;;;;;;5020452;28;20248;-85
2021/05/07 04:55:13;;;;;;;6.37;3.63;;;7.90;99.90;;;;;;5021175;28;20228;-84
2021/05/07 04:57:39;;;;;;;3.63;3.03;;;7.80;99.90;;;;;;5020999;28;20273;-84
2021/05/07 05:00:05;;;;;;;7.67;3.30;;;7.90;99.90;;;;;;5021601;28;20202;-84
2021/05/07 05:02:31;;;;;;;4.13;3.13;;;7.90;99.90;;;;;;5021803;28;20208;-84
2021/05/07 05:04:57;;;;;;;3.57;3.27;;;8.00;99.90;;;;;;5019907;28;20186;-84
2021/05/07 05:07:23;;;;;;;3.20;3.00;;;8.00;99.90;;;;;;5019786;28;20190;-84
2021/05/07 05:09:49;;;;;;;4.20;3.80;;;8.10;99.40;;;;;;5020229;28;20201;-84
2021/05/07 05:12:15;;;;;;;3.67;3.37;;;8.10;99.90;;;;;;5021312;28;20205;-85
2021/05/07 05:14:41;;;;;;;3.60;3.30;;;8.20;99.40;;;;;;5020557;28;20197;-84
2021/05/07 05:17:06;;;;;;;2.97;2.77;;;8.20;99.10;;;;;;5019540;28;20186;-84
2021/05/07 05:19:32;;;;;;;3.67;3.20;;;8.20;98.40;;;;;;5019749;28;20282;-84
2021/05/07 05:21:58;;;;;;;3.20;3.00;;;8.40;97.30;;;;;;5020882;28;20219;-84
2021/05/07 05:24:24;;;;;;;3.13;2.90;;;8.50;97.50;;;;;;5020211;28;20814;-85
2021/05/07 05:26:50;;;;;;;5.00;3.33;;;8.60;96.30;;;;;;5020129;28;20212;-87
2021/05/07 05:29:16;;;;;;;5.20;3.50;;;8.60;96.00;;;;;;5019092;28;20197;-84
2021/05/07 05:31:41;;;;;;;3.73;3.17;;;8.50;96.40;;;;;;5018928;28;20190;-84
2021/05/07 05:34:07;;;;;;;3.97;3.63;;;8.50;96.70;;;;;;5021118;28;20200;-84
2021/05/07 05:36:33;;;;;;;4.93;3.97;;;8.30;97.90;;;;;;5009930;28;20189;-84
2021/05/07 05:38:59;;;;;;;3.90;3.60;;;8.40;97.60;;;;;;5020641;28;20225;-84
2021/05/07 05:41:24;;;;;;;4.07;3.77;;;8.40;97.50;;;;;;5018692;28;20193;-85
2021/05/07 05:43:50;;;;;;;3.43;3.13;;;8.50;97.90;;;;;;5020254;28;20198;-88
2021/05/07 05:46:16;;;;;;;4.97;4.13;;;8.50;97.60;;;;;;5019538;28;20264;-86
2021/05/07 05:48:42;;;;;;;4.20;3.80;;;8.50;97.90;;;;;;5019511;28;20280;-86
2021/05/07 05:51:08;;;;;;;5.80;4.00;;;8.50;98.00;;;;;;5020580;28;20189;-86
2021/05/07 05:53:34;;;;;;;3.57;3.27;;;8.40;98.60;;;;;;5021282;28;20182;-85
2021/05/07 05:55:59;;;;;;;5.27;4.60;;;8.30;99.60;;;;;;5020699;28;20194;-85
2021/05/07 05:58:25;;;;;;;4.10;3.80;;;8.30;99.40;;;;;;5020764;28;20284;-83
2021/05/07 06:00:51;;;;;;;4.67;4.27;;;8.30;99.70;;;;;;5021441;28;20204;-84
2021/05/07 06:03:17;;;;;;;5.07;4.63;;;8.40;97.80;;;;;;5017972;28;20213;-84
2021/05/07 06:05:43;;;;;;;5.33;4.83;;;8.40;98.20;;;;;;5016891;28;20201;-84
2021/05/07 06:08:09;;;;;;;4.77;4.37;;;8.50;97.80;;;;;;5021914;28;20205;-84
2021/05/07 06:10:36;;;;;;;5.00;4.60;;;8.60;96.80;;;;;;5019935;28;20190;-84
2021/05/07 06:13:02;;;;;;;5.53;5.03;;;8.70;96.90;;;;;;5021128;28;20194;-84
2021/05/07 06:15:28;;;;;;;6.90;4.77;;;8.70;96.40;;;;;;5020751;28;20182;-84
2021/05/07 06:17:54;;;;;;;5.70;5.17;;;8.90;94.40;;;;;;5019084;28;20222;-83
2021/05/07 06:20:20;;;;;;;5.07;4.67;;;8.90;94.20;;;;;;5019614;28;20212;-86
2021/05/07 06:22:47;;;;;;;5.10;4.67;;;8.90;94.20;;;;;;5018117;28;20244;-85
2021/05/07 06:25:14;;;;;;;5.47;4.97;;;9.00;94.50;;;;;;5019496;28;20190;-85
2021/05/07 06:27:41;;;;;;;4.80;4.50;;;9.00;93.60;;;;;;5019513;28;20170;-85
2021/05/07 06:30:09;;;;;;;5.13;4.60;;;9.10;94.20;;;;;;5018560;28;20277;-85
2021/05/07 06:32:34;;;;;;;5.97;5.37;;;9.10;92.20;;;;;;5018812;28;20201;-85
2021/05/07 06:35:00;;;;;;;5.47;4.97;;;9.00;94.90;;;;;;5019740;28;20198;-85
2021/05/07 06:37:26;;;;;;;5.60;5.10;;;9.00;94.30;;;;;;5020404;28;20185;-84
2021/05/07 06:39:52;;;;;;;5.33;4.83;;;9.00;92.40;;;;;;5030776;28;20407;-83
2021/05/07 06:42:21;;;;;;;5.57;5.07;;;9.10;93.30;;;;;;5031966;28;20216;-83
2021/05/07 06:44:46;;;;;;;6.77;6.17;;;9.00;92.90;;;;;;5032966;28;20240;-85
2021/05/07 06:47:12;;;;;;;8.03;6.23;;;8.90;90.30;;;;;;5031076;28;20173;-85
2021/05/07 06:49:38;;;;;;;6.20;5.50;;;8.90;92.00;;;;;;5022368;28;20202;-84
2021/05/07 06:52:04;;;;;;;6.00;5.40;;;9.00;92.40;;;;;;5020534;28;20240;-85
2021/05/07 06:54:30;;;;;;;6.83;6.13;;;9.20;92.10;;;;;;5018004;28;20198;-85
2021/05/07 06:56:57;;;;;;;7.00;6.33;;;9.20;86.00;;;;;;5010716;28;20178;-85
2021/05/07 06:59:24;;;;;;;6.57;6.03;;;9.30;84.10;;;;;;5017619;28;20666;-85
2021/05/07 07:01:50;;;;;;;6.93;6.33;;;9.50;83.10;;;;;;5010108;28;20222;-85
2021/05/07 07:04:16;;;;;;;7.17;6.57;;;9.60;78.90;;;;;;5009448;28;20194;-85
2021/05/07 07:06:42;;;;;;;43.87;39.23;;;9.60;82.50;;;;;;5021328;28;20261;-85
2021/05/07 07:09:07;;;;;;;10.23;8.93;;;9.70;85.20;;;;;;5019832;28;20271;-85
2021/05/07 07:11:33;;;;;;;8.90;8.00;;;9.80;80.00;;;;;;5021277;28;20601;-84
2021/05/07 07:13:59;;;;;;;7.17;6.53;;;9.70;75.80;;;;;;5022514;28;20197;-85
2021/05/07 07:16:25;;;;;;;7.40;6.70;;;9.80;75.40;;;;;;5021353;28;20201;-86
2021/05/07 07:18:51;;;;;;;8.27;7.57;;;9.80;72.60;;;;;;5017812;28;20583;-87
2021/05/07 07:21:17;;;;;;;8.37;7.57;;;9.90;73.20;;;;;;5022474;28;20255;-86
2021/05/07 07:23:43;;;;;;;7.17;6.40;;;9.80;75.90;;;;;;5021367;28;20205;-86
2021/05/07 07:26:09;;;;;;;7.33;6.53;;;9.90;76.20;;;;;;5016760;28;20695;-86
2021/05/07 07:28:38;;;;;;;6.33;5.70;;;10.00;73.90;;;;;;5021961;28;20210;-87
2021/05/07 07:31:05;;;;;;;31.10;27.57;;;9.90;72.10;;;;;;5020315;28;20197;-86
2021/05/07 07:33:31;;;;;;;31.37;22.97;;;9.90;69.20;;;;;;5024685;28;20181;-87
2021/05/07 07:35:58;;;;;;;31.00;23.30;;;9.90;71.30;;;;;;5019668;28;20185;-87
2021/05/07 07:38:24;;;;;;;7.80;7.00;;;10.00;72.60;;;;;;5016192;28;20280;-86
2021/05/07 07:40:50;;;;;;;9.63;8.40;;;9.80;71.70;;;;;;5016759;28;20181;-86
2021/05/07 07:43:17;;;;;;;35.00;25.83;;;9.90;76.40;;;;;;5014693;28;20217;-86
2021/05/07 07:45:43;;;;;;;28.47;23.77;;;10.10;74.50;;;;;;5019665;28;20249;-86
2021/05/07 07:48:09;;;;;;;35.63;32.07;;;10.10;74.00;;;;;;5018635;28;20255;-87
2021/05/07 07:50:35;;;;;;;10.73;9.63;;;10.20;74.20;;;;;;5028260;28;20236;-87
2021/05/07 07:53:00;;;;;;;7.70;7.00;;;10.20;71.00;;;;;;5018775;28;20220;-86
2021/05/07 07:55:26;;;;;;;7.20;6.50;;;10.30;69.50;;;;;;5014961;28;20212;-86
2021/05/07 07:57:52;;;;;;;9.37;8.47;;;10.50;69.80;;;;;;5017239;28;20189;-86
2021/05/07 08:00:18;;;;;;;14.43;13.13;;;10.40;69.10;;;;;;5014993;28;20221;-85
2021/05/07 08:02:45;;;;;;;7.03;6.33;;;10.40;66.70;;;;;;5013705;28;20217;-86
2021/05/07 08:05:11;;;;;;;6.10;5.47;;;10.30;63.00;;;;;;5018416;28;20185;-87
2021/05/07 08:07:37;;;;;;;6.17;5.57;;;10.20;64.90;;;;;;5019084;28;20213;-86
2021/05/07 08:10:04;;;;;;;5.97;5.47;;;10.30;65.90;;;;;;5019329;28;20173;-85
2021/05/07 08:12:30;;;;;;;8.53;6.70;;;10.50;65.10;;;;;;5007632;28;20276;-85
2021/05/07 08:14:57;;;;;;;6.17;5.67;;;10.60;65.30;;;;;;5032298;28;20188;-84
2021/05/07 08:17:24;;;;;;;7.10;6.40;;;10.50;65.70;;;;;;5024548;28;20677;-85
2021/05/07 08:19:50;;;;;;;6.13;5.30;;;10.60;61.90;;;;;;5023673;28;20214;-86
2021/05/07 08:22:16;;;;;;;5.70;4.80;;;10.60;58.70;;;;;;5021060;28;20209;-85
2021/05/07 08:24:45;;;;;;;4.90;4.30;;;10.70;57.40;;;;;;5021139;28;20217;-85
2021/05/07 08:27:11;;;;;;;5.97;4.67;;;10.80;57.80;;;;;;5021635;28;20196;-84
2021/05/07 08:29:37;;;;;;;5.50;4.97;;;10.90;54.40;;;;;;5022118;28;20206;-84
2021/05/07 08:32:04;;;;;;;6.43;5.40;;;11.00;55.20;;;;;;5020090;28;20547;-84
2021/05/07 08:34:30;;;;;;;6.07;5.47;;;11.00;55.90;;;;;;5021514;28;20256;-85
2021/05/07 08:36:55;;;;;;;7.37;6.13;;;11.20;59.00;;;;;;5023072;28;20216;-85
2021/05/07 08:39:21;;;;;;;7.07;5.73;;;11.40;60.60;;;;;;5019645;28;20721;-85
2021/05/07 08:41:50;;;;;;;5.70;5.30;;;11.60;58.10;;;;;;5019718;28;20217;-85
2021/05/07 08:44:18;;;;;;;5.60;4.53;;;11.40;57.50;;;;;;5002035;28;20193;-85
2021/05/07 08:46:45;;;;;;;4.67;4.27;;;11.40;55.90;;;;;;5014232;28;20177;-85
2021/05/07 08:49:15;;;;;;;4.87;4.47;;;11.60;53.00;;;;;;4998711;28;20297;-87
2021/05/07 08:51:40;;;;;;;5.50;4.80;;;11.60;51.30;;;;;;5015230;28;20200;-88
2021/05/07 08:54:10;;;;;;;5.57;5.07;;;11.60;51.50;;;;;;5019376;28;20327;-88
2021/05/07 08:56:36;;;;;;;5.47;4.30;;;11.80;54.00;;;;;;5016185;28;20201;-86
2021/05/07 08:59:03;;;;;;;4.80;4.40;;;11.90;52.70;;;;;;5012815;28;20252;-86
2021/05/07 09:01:39;;;;;;;5.07;4.67;;;12.00;52.60;;;;;;5018702;28;20556;-87
2021/05/07 09:04:12;;;;;;;6.00;5.50;;;11.90;53.20;;;;;;5021174;28;20190;-86
2021/05/07 09:06:55;;;;;;;9.07;4.83;;;11.90;53.70;;;;;;5019505;28;20185;-86
2021/05/07 09:09:26;;;;;;;5.27;4.77;;;11.70;50.90;;;;;;5020300;28;20208;-87
2021/05/07 09:11:53;;;;;;;4.70;4.20;;;11.70;52.20;;;;;;5020179;28;20227;-87
2021/05/07 09:14:19;;;;;;;4.17;3.77;;;11.80;49.60;;;;;;5019330;28;20194;-86
2021/05/07 09:16:59;;;;;;;4.30;3.90;;;12.00;47.40;;;;;;5020307;28;20178;-86
2021/05/07 09:19:27;;;;;;;4.30;3.90;;;12.20;47.60;;;;;;5019864;28;20205;-86
2021/05/07 09:21:54;;;;;;;4.60;4.20;;;12.20;45.60;;;;;;5020430;28;20791;-87
2021/05/07 09:24:31;;;;;;;5.03;4.63;;;12.20;46.20;;;;;;5018148;28;20260;-86
2021/05/07 09:26:57;;;;;;;4.07;3.77;;;12.30;46.50;;;;;;5020700;28;20177;-86
2021/05/07 09:29:26;;;;;;;4.67;4.27;;;12.60;46.00;;;;;;5018092;28;20206;-86
2021/05/07 09:31:55;;;;;;;4.80;4.40;;;12.60;46.40;;;;;;5018648;28;20178;-88
2021/05/07 09:34:22;;;;;;;5.93;4.73;;;12.30;48.90;;;;;;5006064;28;20187;-87
2021/05/07 09:36:50;;;;;;;5.10;4.67;;;12.50;48.60;;;;;;5011402;28;20190;-87
2021/05/07 09:39:19;;;;;;;4.77;4.37;;;12.50;46.40;;;;;;5013309;28;20359;-87
2021/05/07 09:41:48;;;;;;;4.87;4.47;;;12.20;46.60;;;;;;5014760;28;20272;-86
2021/05/07 09:44:17;;;;;;;6.60;4.57;;;12.30;46.50;;;;;;5012900;28;20242;-87
2021/05/07 09:46:44;;;;;;;6.70;4.67;;;12.60;44.80;;;;;;5013606;28;20182;-87
2021/05/07 09:49:20;;;;;;;5.10;4.60;;;12.70;44.50;;;;;;5016126;28;20204;-86
2021/05/07 09:51:46;;;;;;;4.80;4.40;;;12.80;44.60;;;;;;5014152;28;20227;-87
2021/05/07 09:54:12;;;;;;;6.20;4.80;;;12.60;46.40;;;;;;5014992;28;20194;-87
2021/05/07 09:56:38;;;;;;;6.93;4.97;;;12.70;46.90;;;;;;5011091;28;20212;-86
2021/05/07 09:59:04;;;;;;;7.83;4.80;;;13.10;45.70;;;;;;5010690;28;20206;-87
2021/05/07 10:01:30;;;;;;;6.30;4.90;;;13.20;45.60;;;;;;5014865;28;20357;-87
2021/05/07 10:03:58;;;;;;;4.80;4.23;;;13.30;45.40;;;;;;5016705;28;20202;-88
2021/05/07 10:06:28;;;;;;;5.20;4.77;;;13.30;43.60;;;;;;5000754;28;20277;-88
2021/05/07 10:08:54;;;;;;;6.97;4.83;;;13.70;44.90;;;;;;5019100;28;20228;-89
2021/05/07 10:11:22;;;;;;;6.07;4.73;;;13.80;41.20;;;;;;5020075;28;20202;-89
2021/05/07 10:13:51;;;;;;;5.33;4.40;;;13.40;42.60;;;;;;5017892;28;20179;-86
2021/05/07 10:16:30;;;;;;;4.80;4.30;;;13.10;39.70;;;;;;5013049;28;20186;-87
2021/05/07 10:19:04;;;;;;;5.43;4.93;;;12.40;41.30;;;;;;5016438;28;20288;-87
2021/05/07 10:21:38;;;;;;;6.83;4.73;;;12.80;42.40;;;;;;5018856;28;20562;-88
2021/05/07 10:24:06;;;;;;;7.77;4.10;;;13.20;43.60;;;;;;5009185;28;20205;-88
2021/05/07 10:26:42;;;;;;;5.37;4.43;;;13.70;44.10;;;;;;5009689;28;20182;-88
2021/05/07 10:29:34;;;;;;;5.83;4.90;;;13.90;42.00;;;;;;5012140;28;20206;-88
2021/05/07 10:32:02;;;;;;;5.00;4.60;;;14.00;40.30;;;;;;5013376;28;20670;-88
2021/05/07 10:34:28;;;;;;;5.37;4.87;;;14.00;41.50;;;;;;5013880;28;20188;-87
2021/05/07 10:37:00;;;;;;;5.17;4.60;;;14.30;40.70;;;;;;5013909;28;20249;-88
2021/05/07 10:39:28;;;;;;;4.83;4.43;;;14.50;38.60;;;;;;5013048;28;20653;-89
2021/05/07 10:41:58;;;;;;;4.93;4.53;;;14.30;39.10;;;;;;5016638;28;20217;-88
2021/05/07 10:44:26;;;;;;;5.40;4.90;;;14.20;38.60;;;;;;5019198;28;20190;-88
2021/05/07 10:47:09;;;;;;;4.83;4.27;;;14.00;40.60;;;;;;5018305;28;20178;-89
2021/05/07 10:49:44;;;;;;;5.13;4.20;;;14.30;41.30;;;;;;5019330;28;20558;-88
2021/05/07 10:52:11;;;;;;;5.23;4.43;;;14.20;38.20;;;;;;5020648;28;20191;-87
2021/05/07 10:55:16;;;;;;;5.07;4.53;;;14.20;40.80;;;;;;5018527;28;20211;-88
2021/05/07 10:57:38;;;;;;;4.83;4.43;;;14.10;40.20;;;;;;5024168;28;20246;-87
2021/05/07 11:00:16;;;;;;;5.93;4.67;;;14.50;39.60;;;;;;5036954;28;20188;-89
2021/05/07 11:02:52;;;;;;;5.50;4.40;;;14.90;38.80;;;;;;5028591;28;20227;-90
2021/05/07 11:05:46;;;;;;;7.27;4.37;;;15.10;38.80;;;;;;5011732;28;20247;-90
2021/05/07 11:08:12;;;;;;;4.63;4.23;;;14.50;38.60;;;;;;5017832;28;20751;-88
2021/05/07 11:10:38;;;;;;;5.23;4.53;;;14.20;39.10;;;;;;5017835;28;20211;-88
2021/05/07 11:13:06;;;;;;;4.93;4.47;;;13.90;38.40;;;;;;5020705;28;20196;-88
2021/05/07 11:15:31;;;;;;;4.73;4.33;;;13.80;38.60;;;;;;5021004;28;20308;-86
2021/05/07 11:18:10;;;;;;;5.13;4.73;;;14.10;39.60;;;;;;5019431;28;20247;-88
2021/05/07 11:20:41;;;;;;;5.73;4.40;;;14.40;39.30;;;;;;5020614;28;20180;-88
2021/05/07 11:23:11;;;;;;;6.07;4.43;;;14.50;39.40;;;;;;5020487;28;20246;-87
2021/05/07 11:25:38;;;;;;;5.10;4.20;;;14.30;41.10;;;;;;5024579;28;20324;-87
2021/05/07 11:28:20;;;;;;;5.00;4.60;;;13.90;40.60;;;;;;5037867;28;20192;-86
2021/05/07 11:30:57;;;;;;;6.17;4.80;;;13.60;39.80;;;;;;5030378;28;20244;-89
2021/05/07 11:33:26;;;;;;;9.77;5.63;;;13.20;41.30;;;;;;5020312;28;20186;-89
2021/05/07 11:36:07;;;;;;;6.17;4.80;;;12.70;49.80;;;;;;5018913;28;20313;-88
2021/05/07 11:38:35;;;;;;;6.77;3.90;;;12.40;54.00;;;;;;5009235;28;20356;-88
2021/05/07 11:41:01;;;;;;;4.90;3.60;;;13.00;53.30;;;;;;5016152;28;20190;-88
2021/05/07 11:43:28;;;;;;;2.67;2.47;;;13.60;49.30;;;;;;5014802;28;20594;-87
2021/05/07 11:46:04;;;;;;;3.47;2.60;;;14.20;46.80;;;;;;5015150;28;20183;-87
2021/05/07 11:48:31;;;;;;;5.50;2.80;;;14.40;40.70;;;;;;5014012;28;20265;-87
2021/05/07 11:50:57;;;;;;;6.93;3.37;;;14.50;42.30;;;;;;5020526;28;20201;-87
2021/05/07 11:53:22;;;;;;;5.10;4.57;;;14.80;41.70;;;;;;5018377;28;20255;-88
2021/05/07 11:55:48;;;;;;;9.23;5.37;;;15.00;40.30;;;;;;5013828;28;20196;-88
2021/05/07 11:58:15;;;;;;;41.80;35.93;;;15.10;39.60;;;;;;5014555;28;20208;-88
2021/05/07 12:00:42;;;;;;;13.03;11.93;;;15.30;40.40;;;;;;5014708;28;20204;-89
2021/05/07 12:03:14;;;;;;;5.47;4.43;;;15.60;39.60;;;;;;5015073;28;20685;-88
2021/05/07 12:05:43;;;;;;;5.90;5.13;;;15.80;39.10;;;;;;5015084;28;20279;-90
2021/05/07 12:08:10;;;;;;;5.57;4.10;;;16.00;38.20;;;;;;5017020;28;20248;-89
2021/05/07 12:10:38;;;;;;;7.43;4.10;;;15.80;39.50;;;;;;5012201;28;20202;-89
2021/05/07 12:13:03;;;;;;;4.27;3.87;;;15.20;40.10;;;;;;5027475;28;20214;-88
2021/05/07 12:15:45;;;;;;;4.87;3.77;;;14.70;42.10;;;;;;5014143;28;20289;-90
2021/05/07 12:18:19;;;;;;;7.37;3.90;;;14.50;43.60;;;;;;5016381;28;20202;-89
2021/05/07 12:20:50;;;;;;;3.73;2.27;;;14.30;42.70;;;;;;5013307;28;20196;-88
2021/05/07 12:23:16;;;;;;;2.93;2.73;;;14.10;38.90;;;;;;5014446;28;20310;-90
2021/05/07 12:25:46;;;;;;;4.90;3.07;;;13.80;41.50;;;;;;5014032;28;20282;-89
2021/05/07 12:28:14;;;;;;;5.70;5.30;;;13.60;45.70;;;;;;5016670;28;20204;-89
2021/05/07 12:30:40;;;;;;;5.93;5.53;;;13.60;47.60;;;;;;5015450;28;20185;-89
2021/05/07 12:33:08;;;;;;;5.70;5.20;;;13.50;48.60;;;;;;5016429;28;20186;-89
2021/05/07 12:35:42;;;;;;;5.43;4.03;;;13.60;48.10;;;;;;5015229;28;20203;-89
2021/05/07 12:38:14;;;;;;;6.93;5.43;;;14.10;47.60;;;;;;5023282;28;20209;-88
2021/05/07 12:40:40;;;;;;;8.47;3.40;;;14.20;46.10;;;;;;5027311;28;20174;-86
2021/05/07 12:43:05;;;;;;;4.87;2.80;;;14.30;47.20;;;;;;5014627;28;20233;-85
2021/05/07 12:45:31;;;;;;;3.57;3.27;;;14.40;46.10;;;;;;5015473;28;20198;-86
2021/05/07 12:47:56;;;;;;;3.83;3.53;;;15.10;42.20;;;;;;5015882;28;20231;-87
2021/05/07 12:50:22;;;;;;;7.60;6.87;;;15.80;42.50;;;;;;5015189;28;20567;-88
2021/05/07 12:52:48;;;;;;;4.60;4.20;;;16.60;38.70;;;;;;5015477;28;20656;-86
2021/05/07 12:55:13;;;;;;;4.30;3.33;;;17.00;37.80;;;;;;5018067;28;20190;-88
2021/05/07 12:57:39;;;;;;;3.30;3.00;;;17.50;35.60;;;;;;5019062;28;20191;-87